Terminal Aerodrome Forecast
Issued by NWS

Home | Current Version | Previous Version | Text Only | Print | Product List | Glossary On
Versions: 1 2 3 4 5 6 7 8 9 10 11 12 13 14 15 16 17 18 19 20 21 22 23 24 25 26
000
FTUS45 KPSR 261720
TAFIWA
TAF
KIWA 261720Z 2618/2718 13004KT P6SM SCT200
      TEMPO 2618/2620 VRB03KT
     FM262000 27006KT P6SM SCT200
     FM270300 34003KT P6SM SCT200
     FM270600 11006KT P6SM FEW250=

USA.gov is the U.S. government's official web portal to all federal, state and local government web resources and services.